createdAt,value
2022-08-16T00:01:17.005Z,5.63
2022-08-16T00:03:45.235Z,5.90
2022-08-16T00:06:13.085Z,5.23
2022-08-16T00:08:45.796Z,5.23
2022-08-16T00:11:15.553Z,5.67
2022-08-16T00:13:53.389Z,5.40
2022-08-16T00:17:05.645Z,4.67
2022-08-16T00:19:22.502Z,4.30
2022-08-16T00:21:51.925Z,4.43
2022-08-16T00:24:31.370Z,4.50
2022-08-16T00:27:01.187Z,4.67
2022-08-16T00:29:29.683Z,4.50
2022-08-16T00:32:00.683Z,4.63
2022-08-16T00:34:43.952Z,4.20
2022-08-16T00:37:17.160Z,4.00
2022-08-16T00:39:47.491Z,4.10
2022-08-16T00:42:30.025Z,3.80
2022-08-16T00:45:06.414Z,3.87
2022-08-16T00:47:36.160Z,4.47
2022-08-16T00:50:08.219Z,3.30
2022-08-16T00:52:50.243Z,3.50
2022-08-16T00:55:22.209Z,3.63
2022-08-16T00:57:58.912Z,3.83
2022-08-16T01:00:29.116Z,3.60
2022-08-16T01:02:58.249Z,3.70
2022-08-16T01:05:25.717Z,3.83
2022-08-16T01:07:54.018Z,3.67
2022-08-16T01:10:32.001Z,3.80
2022-08-16T01:13:05.302Z,3.53
2022-08-16T01:15:34.910Z,3.30
2022-08-16T01:18:04.483Z,3.63
2022-08-16T01:20:34.189Z,4.00
2022-08-16T01:23:11.728Z,3.30
2022-08-16T01:25:42.209Z,5.77
2022-08-16T01:28:20.189Z,3.50
2022-08-16T01:30:52.420Z,3.43
2022-08-16T01:33:20.607Z,3.20
2022-08-16T01:36:09.438Z,3.13
2022-08-16T01:38:48.880Z,3.27
2022-08-16T01:41:26.328Z,3.07
2022-08-16T01:44:01.230Z,3.00
2022-08-16T01:46:40.679Z,2.90
2022-08-16T01:49:11.569Z,3.33
2022-08-16T01:51:41.385Z,2.90
2022-08-16T01:54:11.092Z,2.50
2022-08-16T01:56:41.169Z,2.87
2022-08-16T01:59:16.071Z,3.07
2022-08-16T02:01:49.597Z,3.10
2022-08-16T02:04:48.196Z,3.30
2022-08-16T02:07:11.209Z,3.00
2022-08-16T02:09:39.079Z,2.87
2022-08-16T02:12:39.806Z,3.03
2022-08-16T02:14:54.643Z,2.77
2022-08-16T02:17:21.979Z,3.20
2022-08-16T02:19:58.486Z,3.10
2022-08-16T02:22:35.859Z,2.80
2022-08-16T02:25:14.992Z,2.93
2022-08-16T02:27:43.717Z,3.77
2022-08-16T02:30:35.792Z,2.67
2022-08-16T02:33:04.091Z,3.00
2022-08-16T02:35:32.039Z,3.17
2022-08-16T02:38:01.632Z,3.20
2022-08-16T02:40:36.198Z,3.17
2022-08-16T02:43:04.745Z,3.40
2022-08-16T02:45:32.704Z,3.03
2022-08-16T02:48:29.050Z,2.70
2022-08-16T02:50:53.659Z,2.97
2022-08-16T02:53:30.006Z,3.40
2022-08-16T02:55:57.261Z,3.23
2022-08-16T02:58:25.033Z,2.83
2022-08-16T03:00:55.890Z,2.80
2022-08-16T03:03:25.728Z,3.17
2022-08-16T03:05:53.619Z,3.40
2022-08-16T03:08:49.645Z,3.63
2022-08-16T03:11:20.504Z,3.20
2022-08-16T03:13:53.026Z,3.27
2022-08-16T03:16:37.906Z,3.13
2022-08-16T03:19:07.733Z,3.43
2022-08-16T03:21:38.035Z,3.30
2022-08-16T03:24:28.323Z,2.83
2022-08-16T03:27:01.759Z,2.73
2022-08-16T03:29:32.286Z,3.33
2022-08-16T03:32:01.755Z,3.23
2022-08-16T03:34:30.146Z,3.13
2022-08-16T03:36:57.820Z,3.50
2022-08-16T03:39:25.071Z,2.90
2022-08-16T03:41:59.705Z,3.23
2022-08-16T03:44:43.406Z,3.40
2022-08-16T03:47:12.759Z,3.00
2022-08-16T03:49:47.831Z,3.40
2022-08-16T03:52:23.422Z,3.20
2022-08-16T03:54:57.792Z,3.37
2022-08-16T03:57:32.088Z,3.00
2022-08-16T04:00:36.153Z,3.40
2022-08-16T04:03:09.144Z,3.47
2022-08-16T04:05:39.014Z,3.03
2022-08-16T04:08:22.481Z,3.60
2022-08-16T04:10:52.564Z,3.47
2022-08-16T04:13:59.062Z,5.97
2022-08-16T04:16:07.879Z,3.87
2022-08-16T04:18:39.500Z,3.50
2022-08-16T04:21:07.005Z,3.80
2022-08-16T04:23:34.757Z,3.67
2022-08-16T04:26:05.018Z,2.90
2022-08-16T04:28:53.449Z,3.20
2022-08-16T04:31:20.102Z,3.40
2022-08-16T04:33:47.414Z,3.40
2022-08-16T04:36:20.059Z,3.23
2022-08-16T04:38:49.996Z,3.50
2022-08-16T04:41:18.020Z,3.53
2022-08-16T04:43:45.533Z,4.10
2022-08-16T04:46:26.573Z,3.43
2022-08-16T04:49:02.754Z,4.00
2022-08-16T04:51:35.767Z,3.57
2022-08-16T04:54:03.734Z,3.97
2022-08-16T04:56:31.465Z,3.40
2022-08-16T04:58:58.806Z,3.63
2022-08-16T05:01:58.337Z,3.13
2022-08-16T05:04:19.574Z,3.37
2022-08-16T05:06:47.391Z,3.70
2022-08-16T05:09:16.338Z,3.70
2022-08-16T05:11:43.803Z,4.00
2022-08-16T05:14:11.202Z,3.53
2022-08-16T05:16:47.811Z,3.13
2022-08-16T05:19:19.487Z,3.80
2022-08-16T05:21:46.895Z,3.87
2022-08-16T05:24:14.278Z,3.47
2022-08-16T05:26:51.971Z,4.63
2022-08-16T05:29:20.633Z,3.63
2022-08-16T05:31:53.064Z,3.60
2022-08-16T05:34:22.485Z,4.20
2022-08-16T05:36:51.152Z,3.47
2022-08-16T05:39:20.659Z,3.43
2022-08-16T05:41:51.953Z,3.90
2022-08-16T05:44:23.927Z,3.50
2022-08-16T05:46:55.100Z,4.10
2022-08-16T05:49:24.036Z,3.60
2022-08-16T05:51:51.407Z,3.33
2022-08-16T05:54:25.600Z,3.43
2022-08-16T05:56:53.656Z,3.30
2022-08-16T05:59:22.077Z,3.20
2022-08-16T06:01:50.972Z,3.47
2022-08-16T06:04:35.237Z,3.63
2022-08-16T06:07:06.824Z,4.10
2022-08-16T06:09:43.216Z,3.75
2022-08-16T06:12:27.400Z,3.38
2022-08-16T06:15:04.229Z,3.38
2022-08-16T06:17:42.508Z,3.05
2022-08-16T06:20:14.987Z,3.40
2022-08-16T06:22:47.653Z,2.90
2022-08-16T06:25:35.480Z,3.10
2022-08-16T06:28:08.433Z,2.63
2022-08-16T06:30:43.365Z,2.80
2022-08-16T06:33:12.779Z,3.08
2022-08-16T06:35:41.718Z,2.70
2022-08-16T06:38:31.983Z,2.78
2022-08-16T06:40:57.258Z,2.63
2022-08-16T06:43:27.584Z,2.92
2022-08-16T06:45:55.360Z,2.47
2022-08-16T06:48:32.921Z,3.47
2022-08-16T06:51:05.780Z,2.75
2022-08-16T06:53:35.687Z,2.55
2022-08-16T06:56:06.238Z,2.13
2022-08-16T06:58:41.671Z,2.60
2022-08-16T07:01:09.769Z,2.30
2022-08-16T07:03:55.140Z,2.00
2022-08-16T07:06:26.654Z,5.40
2022-08-16T07:08:55.004Z,2.67
2022-08-16T07:11:47.644Z,2.28
2022-08-16T07:14:23.534Z,1.90
2022-08-16T07:16:53.619Z,1.90
2022-08-16T07:19:20.994Z,2.40
2022-08-16T07:21:59.367Z,1.98
2022-08-16T07:24:30.906Z,2.60
2022-08-16T07:27:01.587Z,2.00
2022-08-16T07:29:31.759Z,2.05
2022-08-16T07:32:00.780Z,2.10
2022-08-16T07:34:35.137Z,2.05
2022-08-16T07:37:09.633Z,2.00
2022-08-16T07:39:43.068Z,2.70
2022-08-16T07:42:20.092Z,2.22
2022-08-16T07:44:53.493Z,2.20
2022-08-16T07:47:24.388Z,1.88
2022-08-16T07:49:57.777Z,2.63
2022-08-16T07:52:29.934Z,2.28
2022-08-16T07:54:58.298Z,2.40
2022-08-16T07:57:26.310Z,2.10
2022-08-16T07:59:54.050Z,2.20
2022-08-16T08:02:27.302Z,2.30
2022-08-16T08:04:56.379Z,2.17
2022-08-16T08:07:27.490Z,1.92
2022-08-16T08:09:55.494Z,2.20
2022-08-16T08:12:31.824Z,2.40
2022-08-16T08:15:04.728Z,1.83
2022-08-16T08:17:42.884Z,1.65
2022-08-16T08:20:28.720Z,1.95
2022-08-16T08:22:59.947Z,2.05
2022-08-16T08:25:54.789Z,4.80
2022-08-16T08:28:17.274Z,2.20
2022-08-16T08:30:51.739Z,1.70
2022-08-16T08:33:28.396Z,1.67
2022-08-16T08:36:00.975Z,1.88
2022-08-16T08:38:45.071Z,1.90
2022-08-16T08:41:18.322Z,2.17
2022-08-16T08:43:50.502Z,1.77
2022-08-16T08:46:21.675Z,1.88
2022-08-16T08:49:02.079Z,2.00
2022-08-16T08:51:35.839Z,2.40
2022-08-16T08:54:09.659Z,2.10
2022-08-16T08:56:45.402Z,2.22
2022-08-16T08:59:19.924Z,1.80
2022-08-16T09:01:56.718Z,2.13
2022-08-16T09:04:29.695Z,2.10
2022-08-16T09:07:01.094Z,2.10
2022-08-16T09:09:33.581Z,2.00
2022-08-16T09:12:06.123Z,1.90
2022-08-16T09:14:36.173Z,1.98
2022-08-16T09:17:21.518Z,2.08
2022-08-16T09:19:55.620Z,2.30
2022-08-16T09:22:24.989Z,2.30
2022-08-16T09:24:54.069Z,2.03
2022-08-16T09:27:46.747Z,2.40
2022-08-16T09:30:33.868Z,2.20
2022-08-16T09:33:06.745Z,2.20
2022-08-16T09:35:39.005Z,2.45
2022-08-16T09:38:08.690Z,2.17
2022-08-16T09:40:41.805Z,2.10
2022-08-16T09:43:46.371Z,2.30
2022-08-16T09:46:04.092Z,2.33
2022-08-16T09:48:53.431Z,2.53
2022-08-16T09:51:36.938Z,2.30
2022-08-16T09:54:06.034Z,2.25
2022-08-16T09:56:37.722Z,2.30
2022-08-16T09:59:08.683Z,2.10
2022-08-16T10:01:38.456Z,1.90
2022-08-16T10:04:29.679Z,2.00
2022-08-16T10:09:45.180Z,1.98
2022-08-16T10:12:42.530Z,1.60
2022-08-16T10:15:15.592Z,1.92
2022-08-16T10:17:59.944Z,2.08
2022-08-16T10:20:34.076Z,1.80
2022-08-16T10:23:07.635Z,2.10
2022-08-16T10:27:16.986Z,2.05
2022-08-16T10:28:32.031Z,1.88
2022-08-16T10:31:04.198Z,1.77
2022-08-16T10:33:33.589Z,1.92
2022-08-16T10:36:03.808Z,1.98
2022-08-16T10:38:36.832Z,1.80
2022-08-16T10:41:08.002Z,1.80
2022-08-16T10:43:38.633Z,1.90
2022-08-16T10:46:33.893Z,2.10
2022-08-16T10:48:55.152Z,1.85
2022-08-16T10:51:34.385Z,1.52
2022-08-16T10:54:29.475Z,1.92
2022-08-16T10:57:00.720Z,2.00
2022-08-16T10:59:45.035Z,1.90
2022-08-16T11:02:56.917Z,2.17
2022-08-16T11:05:08.697Z,1.92
2022-08-16T11:07:51.374Z,1.75
2022-08-16T11:19:05.972Z,2.10
2022-08-16T11:22:39.247Z,2.08
2022-08-16T11:24:41.303Z,1.80
2022-08-16T11:27:23.623Z,1.95
2022-08-16T11:29:53.540Z,1.90
2022-08-16T11:32:31.833Z,1.90
2022-08-16T11:35:14.577Z,2.25
2022-08-16T11:38:23.370Z,2.40
2022-08-16T11:40:58.111Z,2.00
2022-08-16T11:43:34.109Z,1.85
2022-08-16T11:46:44.276Z,2.10
2022-08-16T11:48:52.356Z,1.92
2022-08-16T11:51:19.779Z,1.92
2022-08-16T11:53:47.615Z,1.73
2022-08-16T11:56:15.170Z,1.90
2022-08-16T11:58:42.685Z,1.95
2022-08-16T12:01:19.136Z,2.60
2022-08-16T12:03:57.312Z,2.15
2022-08-16T12:06:30.604Z,2.47
2022-08-16T12:09:02.246Z,1.90
2022-08-16T12:11:31.506Z,1.90
2022-08-16T12:14:01.324Z,1.92
2022-08-16T12:16:34.456Z,1.98
2022-08-16T12:19:06.530Z,1.75
2022-08-16T12:21:57.674Z,1.88
2022-08-16T12:24:27.174Z,1.90
2022-08-16T12:26:54.712Z,2.20
2022-08-16T12:29:22.431Z,2.20
2022-08-16T12:32:01.029Z,2.13
2022-08-16T12:34:50.479Z,2.20
2022-08-16T12:37:20.027Z,1.73
2022-08-16T12:39:51.249Z,2.83
2022-08-16T12:42:20.781Z,2.13
2022-08-16T12:44:50.300Z,2.00
2022-08-16T12:47:37.196Z,1.70
2022-08-16T12:50:07.618Z,3.35
2022-08-16T12:52:52.424Z,2.22
2022-08-16T12:55:22.773Z,2.30
2022-08-16T12:57:58.648Z,2.78
2022-08-16T13:00:33.535Z,1.65
2022-08-16T13:03:02.350Z,1.80
2022-08-16T13:08:00.731Z,2.00
2022-08-16T13:10:37.039Z,2.22
2022-08-16T13:13:06.490Z,1.90
2022-08-16T13:15:57.159Z,2.13
2022-08-16T13:18:33.437Z,2.10
2022-08-16T13:21:02.256Z,1.85
2022-08-16T13:23:30.544Z,2.40
2022-08-16T13:25:58.197Z,2.00
2022-08-16T13:28:26.240Z,2.13
2022-08-16T13:30:55.078Z,2.10
2022-08-16T13:33:29.840Z,1.88
2022-08-16T13:35:59.410Z,1.77
2022-08-16T13:38:30.223Z,2.08
2022-08-16T13:41:02.994Z,2.50
2022-08-16T13:43:32.506Z,2.25
2022-08-16T13:46:04.472Z,2.50
2022-08-16T13:48:42.799Z,1.95
2022-08-16T13:51:16.828Z,2.10
2022-08-16T13:53:58.285Z,2.30
2022-08-16T13:56:34.551Z,2.35
2022-08-16T13:59:14.299Z,2.10
2022-08-16T14:01:55.725Z,2.10
2022-08-16T14:04:28.961Z,2.10
2022-08-16T14:06:57.570Z,2.47
2022-08-16T14:09:27.054Z,1.67
2022-08-16T14:11:55.457Z,1.88
2022-08-16T14:14:29.330Z,2.00
2022-08-16T14:17:01.570Z,2.22
2022-08-16T14:19:29.961Z,2.20
2022-08-16T14:22:14.266Z,2.00
2022-08-16T14:24:47.203Z,2.50
2022-08-16T14:27:19.518Z,2.20
2022-08-16T14:29:49.023Z,1.60
2022-08-16T14:32:32.771Z,1.85
2022-08-16T14:35:04.249Z,2.00
2022-08-16T14:37:32.023Z,2.25
2022-08-16T14:40:00.474Z,2.20
2022-08-16T14:42:29.509Z,2.35
2022-08-16T14:44:57.390Z,2.10
2022-08-16T14:47:34.105Z,2.25
2022-08-16T14:50:02.605Z,2.10
2022-08-16T14:52:55.284Z,2.15
2022-08-16T14:55:18.320Z,2.35
2022-08-16T14:57:48.222Z,2.33
2022-08-16T15:00:20.573Z,2.17
2022-08-16T15:02:55.777Z,2.47
2022-08-16T15:05:24.520Z,2.20
2022-08-16T15:07:53.076Z,2.50
2022-08-16T15:10:24.263Z,2.00
2022-08-16T15:12:56.251Z,2.50
2022-08-16T15:15:26.849Z,2.25
2022-08-16T15:17:56.948Z,2.10
2022-08-16T15:20:29.519Z,2.63
2022-08-16T15:22:58.572Z,2.00
2022-08-16T15:25:29.266Z,2.05
2022-08-16T15:27:58.644Z,2.00
2022-08-16T15:30:57.082Z,2.70
2022-08-16T15:33:21.428Z,1.85
2022-08-16T15:35:52.891Z,2.25
2022-08-16T15:38:54.766Z,2.38
2022-08-16T15:41:27.672Z,2.50
2022-08-16T15:44:03.463Z,2.28
2022-08-16T15:46:54.677Z,2.47
2022-08-16T15:49:38.158Z,2.53
2022-08-16T15:52:21.162Z,2.17
2022-08-16T15:54:57.344Z,2.10
2022-08-16T15:57:25.652Z,3.67
2022-08-16T15:59:55.870Z,3.40
2022-08-16T16:02:30.723Z,4.13
2022-08-16T16:05:00.588Z,2.80
2022-08-16T16:07:30.238Z,2.55
2022-08-16T16:09:59.634Z,2.65
2022-08-16T16:15:19.767Z,1.95
2022-08-16T16:17:51.236Z,2.45
2022-08-16T16:20:20.904Z,2.25
2022-08-16T16:22:49.956Z,2.17
2022-08-16T16:25:18.407Z,2.33
2022-08-16T16:27:45.834Z,2.42
2022-08-16T16:30:37.853Z,2.33
2022-08-16T16:33:03.087Z,2.40
2022-08-16T16:35:32.956Z,2.35
2022-08-16T16:38:01.330Z,2.25
2022-08-16T16:40:35.550Z,2.15
2022-08-16T16:43:03.262Z,2.42
2022-08-16T16:45:34.736Z,2.15
2022-08-16T16:48:12.732Z,2.20
2022-08-16T16:50:44.562Z,2.33
2022-08-16T16:53:17.440Z,2.30
2022-08-16T16:55:47.705Z,2.25
2022-08-16T16:58:43.182Z,2.05
2022-08-16T17:01:11.267Z,1.98
2022-08-16T17:03:39.094Z,2.30
2022-08-16T17:06:09.356Z,2.17
2022-08-16T17:08:41.423Z,2.08
2022-08-16T17:11:10.644Z,2.40
2022-08-16T17:13:39.106Z,2.03
2022-08-16T17:16:07.905Z,2.05
2022-08-16T17:19:15.610Z,2.20
2022-08-16T17:21:25.157Z,2.25
2022-08-16T17:23:59.167Z,2.30
2022-08-16T17:26:29.743Z,2.10
2022-08-16T17:29:16.572Z,2.50
2022-08-16T17:31:47.038Z,2.85
2022-08-16T17:34:30.649Z,2.58
2022-08-16T17:37:05.452Z,2.45
2022-08-16T17:40:00.630Z,1.98
2022-08-16T17:42:33.727Z,2.33
2022-08-16T17:45:01.376Z,2.75
2022-08-16T17:47:28.881Z,2.55
2022-08-16T17:49:57.211Z,2.30
2022-08-16T17:52:25.154Z,2.40
2022-08-16T17:54:52.458Z,2.50
2022-08-16T17:57:19.907Z,3.25
2022-08-16T17:59:50.447Z,2.53
2022-08-16T18:02:44.097Z,2.45
2022-08-16T18:05:15.005Z,2.60
2022-08-16T18:07:42.760Z,2.67
2022-08-16T18:10:11.553Z,2.85
2022-08-16T18:12:51.270Z,2.60
2022-08-16T18:15:23.733Z,2.70
2022-08-16T18:17:53.621Z,2.88
2022-08-16T18:20:42.626Z,2.67
2022-08-16T18:23:18.950Z,3.22
2022-08-16T18:25:53.783Z,3.20
2022-08-16T18:28:21.500Z,2.83
2022-08-16T18:30:51.655Z,3.60
2022-08-16T18:33:22.188Z,3.80
2022-08-16T18:35:53.117Z,2.65
2022-08-16T18:38:23.255Z,2.60
2022-08-16T18:40:51.080Z,2.47
2022-08-16T18:43:21.531Z,3.13
2022-08-16T18:46:08.926Z,3.13
2022-08-16T18:48:36.300Z,2.70
2022-08-16T18:51:10.327Z,2.95
2022-08-16T18:53:40.748Z,2.80
2022-08-16T18:56:08.312Z,2.67
2022-08-16T18:58:35.932Z,3.30
2022-08-16T19:01:03.402Z,3.00
2022-08-16T19:03:32.220Z,3.13
2022-08-16T19:06:13.561Z,3.00
2022-08-16T19:08:42.059Z,3.00
2022-08-16T19:11:14.112Z,3.30
2022-08-16T19:13:44.436Z,3.30
2022-08-16T19:16:12.294Z,2.90
2022-08-16T19:18:39.942Z,3.47
2022-08-16T19:21:07.791Z,3.03
2022-08-16T19:23:37.045Z,2.70
2022-08-16T19:26:11.049Z,2.75
2022-08-16T19:28:58.865Z,3.38
2022-08-16T19:31:31.432Z,2.53
2022-08-16T19:33:59.172Z,2.88
2022-08-16T19:36:36.289Z,2.80
2022-08-16T19:39:15.283Z,2.90
2022-08-16T19:41:53.530Z,3.50
2022-08-16T19:44:22.968Z,3.03
2022-08-16T19:46:51.331Z,3.40
2022-08-16T19:49:18.685Z,3.30
2022-08-16T19:51:47.059Z,3.08
2022-08-16T19:54:14.825Z,3.00
2022-08-16T19:56:42.113Z,3.20
2022-08-16T19:59:19.502Z,3.50
2022-08-16T20:01:49.610Z,3.30
2022-08-16T20:04:16.978Z,2.90
2022-08-16T20:06:44.313Z,3.03
2022-08-16T20:09:15.168Z,2.90
2022-08-16T20:11:46.761Z,2.83
2022-08-16T20:14:19.275Z,2.80
2022-08-16T20:16:53.101Z,2.77
2022-08-16T20:19:20.660Z,2.73
2022-08-16T20:21:48.030Z,2.73
2022-08-16T20:24:33.289Z,3.20
2022-08-16T20:27:02.240Z,2.90
2022-08-16T20:29:29.701Z,3.60
2022-08-16T20:31:57.052Z,3.20
2022-08-16T20:34:24.644Z,3.67
2022-08-16T20:36:52.097Z,3.00
2022-08-16T20:39:19.584Z,3.40
2022-08-16T20:41:46.970Z,3.07
2022-08-16T20:44:14.644Z,2.93
2022-08-16T20:46:42.217Z,2.63
2022-08-16T20:49:10.195Z,2.93
2022-08-16T20:51:49.428Z,3.23
2022-08-16T20:54:19.163Z,3.13
2022-08-16T20:56:46.529Z,3.27
2022-08-16T20:59:13.851Z,3.20
2022-08-16T21:01:46.378Z,3.60
2022-08-16T21:04:21.992Z,3.30
2022-08-16T21:06:53.684Z,2.83
2022-08-16T21:09:26.297Z,3.00
2022-08-16T21:11:54.645Z,3.20
2022-08-16T21:14:22.462Z,3.40
2022-08-16T21:16:50.280Z,3.43
2022-08-16T21:19:17.913Z,3.37
2022-08-16T21:21:45.220Z,3.20
2022-08-16T21:24:12.728Z,3.60
2022-08-16T21:26:40.440Z,3.10
2022-08-16T21:29:11.361Z,3.17
2022-08-16T21:31:43.835Z,3.13
2022-08-16T21:34:11.614Z,3.23
2022-08-16T21:36:38.895Z,2.87
2022-08-16T21:39:06.803Z,3.20
2022-08-16T21:41:35.345Z,3.13
2022-08-16T21:44:02.909Z,3.27
2022-08-16T21:46:30.334Z,3.40
2022-08-16T21:48:57.731Z,3.57
2022-08-16T21:51:25.149Z,3.13
2022-08-16T21:53:52.625Z,3.33
2022-08-16T21:56:20.034Z,3.47
2022-08-16T21:58:52.709Z,3.10
2022-08-16T22:01:23.427Z,3.47
2022-08-16T22:04:27.190Z,3.70
2022-08-16T22:06:39.674Z,3.27
2022-08-16T22:09:07.539Z,3.03
2022-08-16T22:11:35.021Z,3.20
2022-08-16T22:14:02.749Z,3.33
2022-08-16T22:16:32.536Z,3.40
2022-08-16T22:19:01.004Z,3.20
2022-08-16T22:21:28.632Z,3.63
2022-08-16T22:23:57.343Z,3.33
2022-08-16T22:26:31.851Z,3.43
2022-08-16T22:29:05.313Z,3.60
2022-08-16T22:31:33.160Z,3.40
2022-08-16T22:34:02.137Z,2.90
2022-08-16T22:36:30.465Z,3.43
2022-08-16T22:38:58.970Z,3.47
2022-08-16T22:41:27.640Z,3.20
2022-08-16T22:43:55.208Z,3.37
2022-08-16T22:46:22.725Z,3.43
2022-08-16T22:48:50.782Z,3.27
2022-08-16T22:51:22.136Z,3.40
2022-08-16T22:53:49.570Z,3.03
2022-08-16T22:56:17.709Z,3.50
2022-08-16T22:58:45.968Z,3.43
2022-08-16T23:01:13.635Z,3.70
2022-08-16T23:03:41.276Z,3.40
2022-08-16T23:06:08.787Z,3.70
2022-08-16T23:08:40.572Z,3.40
2022-08-16T23:11:10.779Z,4.00
2022-08-16T23:13:38.188Z,3.20
2022-08-16T23:16:21.821Z,3.50
2022-08-16T23:18:49.760Z,3.47
2022-08-16T23:21:18.275Z,3.40
2022-08-16T23:23:47.443Z,3.13
2022-08-16T23:26:46.369Z,3.77
2022-08-16T23:29:04.851Z,3.50
2022-08-16T23:31:33.193Z,3.33
2022-08-16T23:34:00.581Z,3.10
2022-08-16T23:36:28.004Z,3.50
2022-08-16T23:38:55.675Z,3.70
2022-08-16T23:41:24.152Z,3.00
2022-08-16T23:43:51.392Z,3.33
2022-08-16T23:46:19.626Z,3.63
2022-08-16T23:49:58.779Z,3.33
2022-08-16T23:51:35.055Z,3.43
2022-08-16T23:54:02.791Z,3.40
2022-08-16T23:56:40.200Z,3.47
2022-08-16T23:59:08.466Z,3.73
